Terminal Aerodrome Forecast
Issued by NWS Riverton, WY

Home | Current Version | Previous Version | Text Only | Print | Product List | Glossary On
Versions: 1 2 3 4 5 6 7 8 9 10 11 12 13 14 15 16
000
FTUS45 KRIW 171700
TAFRIW
TAF
KRIW 171726Z 1718/1818 20006KT P6SM FEW250
     FM180100 24009KT P6SM FEW120 SCT200
     FM180600 27008KT P6SM SCT120 SCT200
     FM181200 25006KT P6SM BKN110=

USA.gov is the U.S. government's official web portal to all federal, state and local government web resources and services.